Latest Weather Observations for Newdegate

IDW60801

Issued at 4:02 pm WST Sunday 7 February 2016 (issued every 30 minutes, with the page automatically refreshed every 10 minutes)

About weather observations | Map of weather stations | Latest weather observations for WA | Other Formats
Station Details ID: 010692 Name: NEWDEGATE RESEARCH STATION Lat: -33.11 Lon: 118.84 Height: 320.0 m
Data from the previous 72 hours. | See also: Recent months at Newdegate
Date/Time
WST
Temp
°C
App
Temp
°C
Dew
Point
Rel
Hum
%
Delta-T
°C
Wind Press
QNH
hPa
Press
MSL
hPa
Rain
since 9 am
mm
Dir
 
Spd
km/h
Gust
km/h
Spd
kts
Gust
kts
07/04:00pm 35.8 33.6 6.1 16 16.4 NE 7 20 4 11 1016.8 1015.4 0.0
07/03:30pm 35.0 32.8 6.3 17 15.9 SSE 7 15 4 8 1017.0 1015.6 0.0
07/03:00pm 35.1 32.9 6.4 17 15.9 NE 7 17 4 9 1017.1 1015.7 0.0
07/02:30pm 35.3 31.7 6.6 17 16.0 E 15 22 8 12 1017.3 1015.9 0.0
07/02:00pm 34.6 32.5 6.8 18 15.5 E 7 13 4 7 1017.5 1016.1 0.0
07/01:30pm 35.0 32.2 8.7 20 15.1 NE 13 22 7 12 1017.7 1016.3 0.0
07/01:00pm 34.1 31.2 8.0 20 14.7 NE 13 22 7 12 1017.9 1016.5 0.0
07/12:30pm 33.9 32.0 10.5 24 13.7 ENE 11 22 6 12 1018.3 1016.9 0.0
07/12:00pm 31.9 30.4 10.6 27 12.4 N 9 22 5 12 1018.7 1017.3 0.0
07/11:30am 30.7 29.0 11.1 30 11.5 NE 11 20 6 11 1019.2 1017.7 0.0
07/11:00am 29.3 26.9 11.4 33 10.4 NE 15 26 8 14 1019.5 1018.1 0.0
07/10:30am 28.9 26.0 12.3 36 9.8 NE 19 26 10 14 1019.7 1018.3 0.0
07/10:00am 27.8 25.6 13.3 40 8.7 NE 17 24 9 13 1019.9 1018.5 0.0
07/09:30am 25.4 22.9 13.6 48 7.0 ENE 19 28 10 15 1020.1 1018.7 0.0
07/09:00am 24.0 21.6 13.8 53 6.0 E 19 28 10 15 1020.2 1018.8 0.0
07/08:30am 22.6 20.1 14.2 59 5.0 E 20 26 11 14 1020.3 1018.9 0.0
07/08:00am 20.8 18.5 14.2 66 3.9 ESE 19 26 10 14 1020.3 1018.9 0.0
07/07:30am 19.5 17.1 14.5 73 2.9 ESE 20 28 11 15 1020.3 1018.9 0.0
07/07:00am 17.9 15.4 14.0 78 2.3 ESE 20 28 11 15 1020.2 1018.8 0.0
07/06:30am 17.1 14.8 14.0 82 1.8 ESE 19 26 10 14 1020.0 1018.6 0.0
07/06:00am 16.0 13.6 13.7 86 1.3 ESE 19 28 10 15 1019.7 1018.3 0.0
07/05:30am 15.5 12.9 13.3 87 1.2 ESE 19 26 10 14 1019.5 1018.1 0.0
07/05:00am 15.7 13.5 13.2 85 1.4 SE 17 20 9 11 1019.2 1017.7 0.0
07/04:30am 15.9 13.7 13.4 85 1.4 SE 17 22 9 12 1018.8 1017.4 0.0
07/04:00am 16.0 14.3 13.5 85 1.4 ESE 15 19 8 10 1018.7 1017.3 0.0
07/03:30am 16.1 14.6 13.2 83 1.6 ESE 13 19 7 10 1018.6 1017.2 0.0
07/03:00am 16.4 14.2 13.3 82 1.8 SE 17 22 9 12 1018.5 1017.1 0.0
07/02:30am 16.7 15.3 13.4 81 1.9 SE 13 17 7 9 1018.6 1017.2 0.0
07/02:00am 17.0 14.5 13.5 80 2.0 SE 19 26 10 14 1018.7 1017.3 0.0
07/01:30am 17.4 13.9 13.5 78 2.2 ESE 24 32 13 17 1019.0 1017.5 0.0
07/01:00am 17.4 14.8 13.7 79 2.1 ESE 20 30 11 16 1019.4 1018.0 0.0
07/12:30am 17.3 14.2 13.4 78 2.2 SE 22 30 12 16 1019.3 1017.8 0.0
07/12:00am 17.3 14.6 13.6 79 2.1 SE 20 28 11 15 1019.4 1018.0 0.0
 
Date/Time
WST
Temp
°C
App
Temp
°C
Dew
Point
Rel
Hum
%
Delta-T
°C
Wind Press
QNH
hPa
Press
MSL
hPa
Rain
since 9 am
mm
Dir
 
Spd
km/h
Gust
km/h
Spd
kts
Gust
kts
06/11:30pm 17.3 13.4 13.4 78 2.2 SE 26 35 14 19 1019.4 1018.0 0.0
06/11:00pm 17.7 14.7 13.6 77 2.4 SE 22 32 12 17 1019.5 1018.1 0.0
06/10:30pm 17.8 14.4 13.7 77 2.4 SE 24 32 13 17 1019.5 1018.1 0.0
06/10:00pm 17.9 14.2 13.8 77 2.4 SE 26 37 14 20 1019.6 1018.2 0.0
06/09:30pm 17.8 13.7 13.7 77 2.4 SE 28 39 15 21 1019.5 1018.1 0.0
06/09:00pm 17.6 13.4 13.5 77 2.3 SE 28 35 15 19 1019.2 1017.7 0.0
06/08:30pm 17.9 13.7 13.4 75 2.6 SE 28 39 15 21 1018.7 1017.3 0.0
06/08:00pm 18.8 14.6 13.6 72 3.0 SE 28 41 15 22 1018.4 1017.0 0.0
06/07:30pm 20.2 15.4 13.9 67 3.7 SE 32 43 17 23 1017.8 1016.4 0.0
06/07:00pm 22.2 17.9 14.3 61 4.7 SE 30 43 16 23 1017.2 1015.8 0.0
06/06:30pm 24.5 19.2 14.3 53 6.1 SE 35 44 19 24 1016.4 1014.9 0.0
06/06:00pm 27.1 22.6 14.8 47 7.5 SE 32 43 17 23 1016.0 1014.5 0.0
06/05:30pm 28.4 23.5 14.3 42 8.6 SE 33 44 18 24 1015.3 1013.9 0.0
06/05:00pm 30.6 25.7 13.8 35 10.2 SE 32 44 17 24 1014.8 1013.4 0.0
06/04:30pm 32.0 28.3 12.8 31 11.6 SE 24 43 13 23 1014.4 1013.0 0.0
06/04:28pm 32.4 29.6 12.6 30 11.9 ESE 19 41 10 22 1014.4 1013.0 0.0
06/04:00pm 34.7 32.7 6.1 17 15.8 E 6 13 3 7 1014.2 1012.8 0.0
06/03:30pm 34.7 32.5 6.1 17 15.8 ESE 7 13 4 7 1014.4 1013.0 0.0
06/03:00pm 33.5 30.9 5.9 18 15.1 NE 9 17 5 9 1014.6 1013.2 0.0
06/02:30pm 33.5 31.4 6.7 19 14.8 SSW 7 15 4 8 1014.8 1013.4 0.0
06/02:00pm 32.9 30.9 7.0 20 14.3 NE 7 13 4 7 1015.1 1013.7 0.0
06/01:30pm 33.5 31.6 7.5 20 14.6 S 7 15 4 8 1015.5 1014.1 0.0
06/01:00pm 32.5 29.8 7.4 21 14.0 WSW 11 17 6 9 1015.9 1014.4 0.0
06/12:30pm 30.8 29.3 8.5 25 12.5 ENE 6 13 3 7 1016.2 1014.7 0.0
06/12:00pm 31.0 29.4 8.7 25 12.6 N 7 17 4 9 1016.5 1015.0 0.0
06/11:30am 30.1 28.8 10.1 29 11.5 NNW 7 13 4 7 1016.7 1015.3 0.0
06/11:00am 29.1 27.6 10.7 32 10.6 SE 9 26 5 14 1017.2 1015.8 0.0
06/10:30am 27.9 26.5 11.0 35 9.7 E 9 15 5 8 1017.7 1016.3 0.0
06/10:00am 26.8 25.6 11.7 39 8.8 ESE 9 17 5 9 1018.0 1016.6 0.0
06/09:30am 25.7 24.7 12.2 43 7.9 E 9 15 5 8 1017.9 1016.5 0.0
06/09:00am 24.5 22.8 12.5 47 7.0 E 13 19 7 10 1017.6 1016.2 0.0
06/08:30am 22.8 21.2 13.8 57 5.3 ESE 15 20 8 11 1017.6 1016.2 0.0
06/08:00am 21.0 19.4 13.9 64 4.2 SE 15 20 8 11 1017.7 1016.3 0.0
06/07:30am 19.9 18.4 14.3 70 3.3 SE 15 20 8 11 1017.6 1016.2 0.0
06/07:00am 17.9 17.5 14.0 78 2.3 ESE 9 13 5 7 1017.2 1015.8 0.0
06/06:30am 16.6 14.5 12.4 76 2.4 SE 15 20 8 11 1017.0 1015.6 0.0
06/06:00am 15.9 15.1 11.7 76 2.3 SE 7 15 4 8 1016.8 1015.4 0.0
06/05:30am 14.8 13.3 10.6 76 2.2 SSE 9 13 5 7 1016.6 1015.2 0.0
06/05:00am 15.1 12.4 10.3 73 2.6 S 15 19 8 10 1016.2 1014.7 0.0
06/04:30am 15.1 13.1 10.1 72 2.7 S 11 13 6 7 1015.8 1014.3 0.0
06/04:00am 15.2 13.3 10.4 73 2.6 S 11 13 6 7 1015.5 1014.1 0.0
06/03:30am 15.3 13.5 10.9 75 2.4 SSE 11 11 6 6 1015.2 1013.8 0.0
06/03:00am 14.9 13.7 9.7 71 2.7 SE 6 7 3 4 1015.1 1013.7 0.0
06/02:30am 16.6 15.6 10.2 66 3.4 SE 6 9 3 5 1015.1 1013.7 0.0
06/02:00am 17.7 15.7 10.3 62 4.0 SE 11 15 6 8 1015.1 1013.7 0.0
06/01:30am 18.4 16.9 10.5 60 4.3 SE 9 11 5 6 1015.2 1013.8 0.0
06/01:00am 18.9 17.8 10.5 58 4.6 ESE 7 11 4 6 1015.2 1013.8 0.0
06/12:30am 20.1 18.2 10.5 54 5.3 ESE 11 15 6 8 1015.2 1013.8 0.0
06/12:00am 20.7 18.8 10.5 52 5.6 ESE 11 19 6 10 1015.4 1014.0 0.0
 
Date/Time
WST
Temp
°C
App
Temp
°C
Dew
Point
Rel
Hum
%
Delta-T
°C
Wind Press
QNH
hPa
Press
MSL
hPa
Rain
since 9 am
mm
Dir
 
Spd
km/h
Gust
km/h
Spd
kts
Gust
kts
05/11:30pm 20.7 18.9 10.8 53 5.5 SE 11 15 6 8 1015.4 1014.0 0.0
05/11:00pm 21.1 19.2 10.6 51 5.8 SE 11 15 6 8 1015.5 1014.1 0.0
05/10:30pm 21.6 20.0 10.1 48 6.3 ESE 9 13 5 7 1015.5 1014.1 0.0
05/10:00pm 22.6 20.7 10.4 46 6.8 ESE 11 15 6 8 1015.7 1014.2 0.0
05/09:30pm 23.3 20.9 10.0 43 7.4 ESE 13 17 7 9 1015.4 1014.0 0.0
05/09:00pm 24.4 22.0 9.9 40 8.1 ESE 13 17 7 9 1015.4 1014.0 0.0
05/08:30pm 25.9 22.3 9.7 36 9.1 ESE 19 26 10 14 1015.0 1013.6 0.0
05/08:00pm 27.0 22.3 9.4 33 9.8 SE 24 35 13 19 1014.5 1013.1 0.0
05/07:30pm 24.1 22.9 8.1 36 8.6 SSE 4 15 2 8 1014.1 1012.7 0.0
05/07:00pm 27.2 26.2 5.5 25 11.4 CALM 0 0 0 0 1013.8 1012.3 0.0
05/06:30pm 31.4 28.9 5.0 19 14.0 ESE 7 11 4 6 1013.7 1012.2 0.0
05/06:00pm 32.4 30.0 5.1 18 14.6 ENE 7 9 4 5 1013.5 1012.0 0.0
05/05:30pm 33.0 30.9 3.9 16 15.3 NNE 4 11 2 6 1013.2 1011.7 0.0
05/05:00pm 33.0 30.5 3.9 16 15.3 WNW 6 15 3 8 1013.3 1011.8 0.0
05/04:30pm 33.2 30.6 3.1 15 15.7 SSE 6 13 3 7 1013.5 1012.0 0.0
05/04:00pm 32.8 29.9 2.8 15 15.5 S 7 17 4 9 1013.8 1012.3 0.0
05/03:30pm 33.0 30.2 2.9 15 15.6 WSW 7 17 4 9 1013.9 1012.5 0.0
05/03:00pm 33.5 30.7 5.1 17 15.3 WNW 9 17 5 9 1014.0 1012.6 0.0
05/02:30pm 32.5 30.6 5.1 18 14.7 NNW 4 9 2 5 1014.2 1012.8 0.0
05/02:00pm 31.8 29.6 5.3 19 14.2 NE 6 7 3 4 1014.5 1013.1 0.0
05/01:30pm 31.8 29.4 5.3 19 14.2 N 7 20 4 11 1014.9 1013.5 0.0
05/01:00pm 30.6 28.3 5.8 21 13.3 NNW 7 13 4 7 1015.2 1013.8 0.0
05/12:30pm 30.0 27.9 6.0 22 12.9 SW 6 15 3 8 1015.8 1014.3 0.0
05/12:00pm 30.7 28.2 6.6 22 13.1 N 9 20 5 11 1016.1 1014.6 0.0
05/11:30am 29.6 27.6 6.9 24 12.3 NNE 7 20 4 11 1016.5 1015.0 0.0
05/11:00am 29.0 26.9 8.1 27 11.5 W 9 15 5 8 1016.9 1015.5 0.0
05/10:30am 28.4 25.9 8.1 28 11.2 N 11 20 6 11 1017.4 1016.0 0.0
05/10:00am 27.2 23.0 7.6 29 10.6 NNW 19 24 10 13 1017.6 1016.2 0.0
05/09:30am 26.7 22.8 8.6 32 10.0 N 19 28 10 15 1017.8 1016.4 0.0
05/09:00am 26.0 22.1 9.4 35 9.2 N 20 28 11 15 1018.1 1016.7 0.0
05/08:30am 24.2 19.4 9.0 38 8.3 N 24 32 13 17 1018.3 1016.9 0.0
05/08:00am 22.9 18.6 9.3 42 7.4 NNE 22 32 12 17 1018.7 1017.3 0.0
05/07:30am 20.4 18.6 10.8 54 5.3 NNE 11 17 6 9 1018.6 1017.2 0.0
05/07:00am 17.3 17.0 11.6 69 3.1 ENE 4 6 2 3 1018.6 1017.2 0.0
05/06:30am 14.7 15.5 12.7 88 1.1 CALM 0 0 0 0 1018.5 1017.1 0.0
05/06:00am 12.3 12.5 10.4 88 1.0 CALM 0 0 0 0 1018.1 1016.7 0.0
05/05:30am 11.7 11.7 9.8 88 1.0 CALM 0 0 0 0 1017.9 1016.5 0.0
05/05:00am 11.8 10.7 9.9 88 1.0 E 6 6 3 3 1017.5 1016.1 0.0
05/04:30am 11.0 9.6 8.9 87 1.1 E 6 6 3 3 1017.2 1015.8 0.0
05/04:00am 11.6 10.8 9.5 87 1.1 E 4 6 2 3 1017.1 1015.7 0.0
05/03:30am 11.5 10.6 9.4 87 1.1 E 4 6 2 3 1017.2 1015.8 0.0
05/03:00am 12.5 11.3 10.4 87 1.1 ESE 7 7 4 4 1017.3 1015.9 0.0
05/02:30am 12.3 11.0 9.9 85 1.2 ESE 7 7 4 4 1017.3 1015.9 0.0
05/02:00am 13.3 12.2 10.8 85 1.3 ESE 7 7 4 4 1017.5 1016.1 0.0
05/01:30am 13.8 12.5 11.1 84 1.5 ESE 9 9 5 5 1017.7 1016.3 0.0
05/01:00am 14.2 13.1 10.8 80 1.8 ESE 7 9 4 5 1017.9 1016.5 0.0
05/12:30am 15.5 14.6 11.5 77 2.2 ESE 7 9 4 5 1018.2 1016.8 0.0
05/12:00am 16.3 14.8 11.9 75 2.4 E 11 15 6 8 1018.3 1016.9 0.0
 
Date/Time
WST
Temp
°C
App
Temp
°C
Dew
Point
Rel
Hum
%
Delta-T
°C
Wind Press
QNH
hPa
Press
MSL
hPa
Rain
since 9 am
mm
Dir
 
Spd
km/h
Gust
km/h
Spd
kts
Gust
kts
04/11:30pm 16.2 14.9 11.4 73 2.6 E 9 11 5 6 1018.6 1017.2 0.0
04/11:00pm 16.6 15.6 10.9 69 3.1 E 7 11 4 6 1018.8 1017.4 0.0
04/10:30pm 17.7 15.9 11.0 65 3.7 E 11 17 6 9 1018.8 1017.4 0.0
04/10:00pm 18.8 16.8 11.4 62 4.1 E 13 20 7 11 1019.0 1017.5 0.0
04/09:30pm 19.5 17.5 11.5 60 4.5 ESE 13 20 7 11 1019.1 1017.6 0.0
04/09:00pm 20.3 18.3 11.5 57 4.9 ESE 13 20 7 11 1019.2 1017.7 0.0
04/08:30pm 21.2 18.4 11.2 53 5.6 ESE 17 26 9 14 1019.0 1017.5 0.0
04/08:00pm 22.4 19.0 11.2 49 6.3 ESE 20 28 11 15 1018.6 1017.2 0.0
04/07:30pm 23.5 20.6 6.7 34 8.8 E 11 13 6 7 1018.1 1016.7 0.0
04/07:00pm 25.8 23.0 6.9 30 10.0 E 11 15 6 8 1018.0 1016.6 0.0
04/06:30pm 27.6 24.8 6.9 27 11.1 ENE 11 15 6 8 1017.8 1016.4 0.0
04/06:00pm 28.4 25.4 5.9 24 11.9 ENE 11 17 6 9 1017.6 1016.2 0.0
04/05:30pm 29.1 25.8 6.5 24 12.2 NE 13 22 7 12 1017.4 1016.0 0.0
04/05:00pm 29.3 25.8 5.4 22 12.6 ENE 13 20 7 11 1017.5 1016.1 0.0
04/04:30pm 29.7 25.9 5.7 22 12.8 E 15 24 8 13 1017.5 1016.1 0.0

Other Formats:

Comma delimited format used in spreadsheet applications
http://www.bom.gov.au/fwo/IDW60801/IDW60801.94628.axf

JavaScript Object Notation format (JSON) in row-major order
http://www.bom.gov.au/fwo/IDW60801/IDW60801.94628.json